2016 Hungry Duck

back to results

Jul. 4, 2016

2016 Hungry Duck
Brighton, MI
Provided by Rotpac Racing, L.L.C.


Half Marathon
Female Open Winners

Place Name City Age Overall Total Time Pace
1 Kayla Dobies Macomb MI 18 7 1:33:44.6 7:09/M

Female Masters' Winners

Place Name City Age Overall Total Time Pace
1 Julie Cauvin 50 21 1:40:24.3 7:40/M

Female 15 to 19

Place Name City Age Overall Total Time Pace
1 Madison Fruchey Huntertown IN 18 12 1:36:59.3 7:24/M
2 Allison Roehl Lapeer MI 19 37 1:44:44.8 8:00/M
3 Analee Kosaian Brighton MI 19 39 1:44:51.9 8:00/M
4 Anna Curley Brighton MI 19 83 2:01:11.3 9:15/M

Female 20 to 24

Place Name City Age Overall Total Time Pace
1 Samantha Brish Ann Arbor MI 24 11 1:36:01.2 7:20/M
2 Riley Sechrist Ann Arbor MI 22 32 1:43:54.8 7:56/M
3 Christina Casali Brighton MI 21 38 1:44:51.9 8:00/M
4 Kelsey Dischler Macomb MI 24 59 1:52:32.7 8:35/M
5 Caitlin Goyer Northville MI 20 60 1:54:03.4 8:42/M
6 Kristyn Carmichael Brighton MI 24 65 1:55:26.6 8:49/M
7 Olivia Kumke Brighton MI 20 118 2:21:49.6 10:50/M

Female 25 to 29

Place Name City Age Overall Total Time Pace
1 Brittani Amell Brighton MI 25 16 1:38:19.1 7:30/M
2 Katharine Brieger Ann Arbor MI 26 19 1:39:59.5 7:38/M
3 Libby Maret Ann Arbor MI 26 25 1:41:40.7 7:46/M
4 Stefanie Driesenga Ann Arbor MI 29 26 1:41:41.5 7:46/M
5 Ellie Reinbrecht Sylvania OH 26 45 1:48:23.4 8:16/M
6 Dana Kapron Ferndale MI 29 111 2:15:23.5 10:20/M

Female 30 to 34

Place Name City Age Overall Total Time Pace
1 Leslie Leemgraven Walled Lake MI 33 8 1:34:19.9 7:12/M
2 Stacey Books South Lyon MI 33 10 1:35:51.9 7:19/M
3 Amy Pistone Ann Arbor MI 30 17 1:38:35.1 7:32/M
4 Kristin Dickinson Livonia MI 31 18 1:38:51.0 7:33/M
5 Hong Weng South Lyon MI 33 29 1:42:33.2 7:50/M
6 Ashley Truan New Hudson MI 33 33 1:44:23.2 7:58/M
7 Misty Evenson South Lyon MI 33 43 1:47:43.0 8:13/M
8 Jessie Jarrad Howell MI 34 53 1:50:33.5 8:26/M
9 Kathrine Darnell Saint Joseph MI 30 67 1:56:29.8 8:54/M
10 Alicia Atiyeh South Lyon MI 32 71 1:57:08.3 8:56/M
11 Lauren Velazquez Orlando FL 33 72 1:57:25.5 8:58/M
12 Jessica Delcorvo Brighton MI 32 73 1:58:08.9 9:01/M
13 Valerie Jackson Livonia MI 30 79 1:59:56.1 9:09/M
14 Lisa Ziem Pinckney MI 31 82 2:01:08.1 9:15/M
15 Jessica Rickel Pinckney MI 31 93 2:07:24.9 9:44/M
16 Stacy Davis Spring Hill TN 34 97 2:10:39.7 9:58/M
17 Sara Vargo Alexandria VA 31 105 2:14:21.2 10:15/M
18 Toni Reese New Hudson MI 34 107 2:14:30.1 10:16/M
19 Allison Staccone Maumee OH 31 125 2:27:59.7 11:18/M
20 Galen Dunleavy South Lyon MI 30 131 2:34:19.9 11:47/M

Female 35 to 39

Place Name City Age Overall Total Time Pace
1 Jacqueline Cheetam Hartland MI 38 14 1:37:49.0 7:28/M
2 Kristi Jensen Pinckney MI 39 54 1:51:47.6 8:32/M
3 Carole Hawke Detroit MI 39 75 1:58:25.0 9:02/M
4 Laura Gagacki Ashburn VA 35 81 2:00:27.8 9:12/M
5 Tracy Flak Howell MI 37 89 2:03:20.9 9:25/M
6 Angela Bunch Warren MI 38 90 2:06:09.5 9:38/M
7 Hattie Maguire South Lyon MI 38 95 2:08:16.4 9:47/M
8 Lisa Gill Howell MI 36 98 2:11:03.6 10:00/M
9 Erin Amoj Grosse Pointe MI 35 100 2:12:44.0 10:08/M
10 Jennifer Gillett Livonia MI 38 101 2:12:44.3 10:08/M
11 Kimberley Witten Canton MI 39 102 2:12:53.4 10:09/M
12 Autumn Ochoa Fraser MI 36 127 2:29:39.5 11:25/M
13 Candace Booth Linden MI 38 129 2:32:56.1 11:40/M

Female 40 to 44

Place Name City Age Overall Total Time Pace
1 Robyn Kaiser Ypsilanti MI 43 48 1:48:54.6 8:19/M
2 Tanya Bacon Charlotte NC 43 50 1:49:09.3 8:20/M
3 Hope Calati Royal Oak MI 43 66 1:56:02.0 8:51/M
4 Christina Gray Brighton MI 42 74 1:58:10.9 9:01/M
5 Kristen Kostielney Brighton MI 42 103 2:13:08.7 10:10/M
6 Kitty Hjelmroth Farmington MI 40 120 2:22:53.5 10:54/M
7 Janet White Maumee OH 41 126 2:27:59.8 11:18/M
8 Carrie Gervasone Fraser MI 42 128 2:29:39.7 11:25/M

Female 45 to 49

Place Name City Age Overall Total Time Pace
1 Belinda Spalding Fowlerville MI 45 36 1:44:39.6 7:59/M
2 Nancy Damm Ann Arbor MI 49 51 1:49:51.1 8:23/M
3 Cathy Markham Brighton MI 48 62 1:54:35.3 8:45/M
4 Amber Ihrke Homer Glen IL 45 77 1:59:47.9 9:09/M
5 Denise Dashner Temperance MI 46 80 2:00:13.6 9:11/M
6 Luma Dara Dearborn MI 48 86 2:02:35.2 9:21/M
7 Michele Cox Howell MI 48 106 2:14:28.4 10:16/M
8 Kerreen Conley Belleville MI 49 109 2:14:58.2 10:18/M
9 Erika Howder Arlington VA 45 114 2:20:20.2 10:43/M
10 Jennie Griffith Auburn Hills MI 47 117 2:20:37.6 10:44/M
11 Nancy Herlocher Ann Arbor MI 48 119 2:21:58.3 10:50/M
12 Renee Jaska Rossford OH 45 124 2:27:59.5 11:18/M
13 Liza Oldford Hobe Sound FL 45 130 2:34:10.1 11:46/M

Female 50 to 54

Place Name City Age Overall Total Time Pace
1 Krys Brish Milford MI 52 44 1:47:58.5 8:15/M
2 Patti Rapp Sylvania OH 53 63 1:54:44.8 8:45/M
3 Janet Shipp Milford MI 54 68 1:56:36.9 8:54/M
4 Arlene Degutis Ann Arbor MI 51 91 2:06:10.1 9:38/M
5 Debra Rojewski Fowlerville MI 51 104 2:13:50.6 10:13/M

Female 55 to 59

Place Name City Age Overall Total Time Pace
1 Diane Mattson Brighton MI 56 84 2:01:36.4 9:17/M
2 Pam Lee-Campbell Brighton MI 57 116 2:20:31.7 10:44/M

Male Open Winners

Place Name City Age Overall Total Time Pace
1 Krzysztof Fidkowski Canton MI 34 1 1:16:05.9 5:48/M

Male Masters' Winners

Place Name City Age Overall Total Time Pace
1 Ewen Nicol Ann Arbor MI 46 15 1:38:03.0 7:29/M

Male 15 to 19

Place Name City Age Overall Total Time Pace
1 Alex Kumke Brighton MI 17 115 2:20:31.5 10:44/M

Male 20 to 24

Place Name City Age Overall Total Time Pace
1 Josh Partridge Brighton MI 23 3 1:20:52.8 6:10/M
2 Jack Dischler Detroit MI 22 55 1:51:58.0 8:33/M
3 Marc Hensel Royal Oak MI 23 64 1:55:00.5 8:47/M

Male 25 to 29

Place Name City Age Overall Total Time Pace
1 Justin Rauhoff Macomb MI 26 58 1:52:32.1 8:35/M

Male 30 to 34

Place Name City Age Overall Total Time Pace
1 Mike Driesenga Ann Arbor MI 31 6 1:27:38.3 6:41/M
2 Steve Brown Howell MI 32 9 1:35:40.0 7:18/M
3 Brent McDermott Ann Arbor MI 31 13 1:37:13.4 7:25/M
4 Joe James Plymouth MI 31 112 2:16:34.1 10:25/M
5 Scott Soulliere Berkley MI 34 121 2:23:38.1 10:58/M
6 Casey Gibson Toledo OH 32 123 2:26:38.4 11:12/M

Male 35 to 39

Place Name City Age Overall Total Time Pace
1 Ken Zimmerman Dewitt MI 35 2 1:17:55.2 5:57/M
2 Mike Camilleri Brighton MI 37 4 1:20:57.6 6:11/M
3 Bruce Mayrand Brighton MI 37 5 1:25:24.9 6:31/M
4 Joshua Mietelski Dexter MI 39 31 1:43:44.9 7:55/M
5 Nick Soulliere Brighton MI 37 42 1:47:12.6 8:11/M
6 Geoff Muller Ann Arbor MI 39 92 2:06:40.5 9:40/M
7 Scott Carpenter Canton MI 39 99 2:12:22.2 10:06/M

Male 40 to 44

Place Name City Age Overall Total Time Pace
1 Mike Petrucci Howell MI 41 40 1:47:03.5 8:10/M
2 Michael Witten Canton MI 43 56 1:52:08.2 8:34/M
3 Derek McGill Brighton MI 42 57 1:52:19.4 8:34/M
4 Scott Herr Toledo OH 41 61 1:54:23.3 8:44/M
5 Ron Abner Howell MI 44 69 1:56:51.3 8:55/M
6 Steve Wisinski Brighton MI 41 70 1:57:03.5 8:56/M
7 Evan Gaertner Brighton MI 41 76 1:58:32.5 9:03/M
8 Bradley Trask 40 96 2:10:31.5 9:58/M
9 Steven Novicki New Boston MI 44 108 2:14:30.4 10:16/M
10 Jorge Broggio Brighton MI 40 110 2:15:11.3 10:19/M

Male 45 to 49

Place Name City Age Overall Total Time Pace
1 Dan Murphy Brighton MI 45 20 1:40:05.8 7:38/M
2 Rich Spalding Fowlerville MI 47 23 1:41:12.3 7:44/M
3 Takuji Iida Novi MI 47 49 1:49:02.1 8:19/M
4 Kyle Fukuda Granite Bay CA 45 52 1:50:17.0 8:25/M
5 David Ihrke Homer Glen IL 47 78 1:59:53.5 9:09/M
6 Steve Combs Brighton MI 47 85 2:02:33.1 9:21/M
7 Eric Tulley Brighton MI 45 88 2:02:58.8 9:23/M
8 Marlon Glenn Taylor MI 45 94 2:08:10.4 9:47/M

Male 50 to 54

Place Name City Age Overall Total Time Pace
1 Steve Broda Northville MI 54 22 1:41:00.4 7:43/M
2 John Demarco Brighton MI 54 24 1:41:33.8 7:45/M
3 Ron Galard Brighton MI 51 28 1:42:13.6 7:48/M
4 Kurt Dutcher Dexter MI 53 30 1:43:29.0 7:54/M
5 Donald McKinnon Toledo OH 53 34 1:44:24.8 7:58/M
6 James Rocktoff Farmington MI 54 41 1:47:07.3 8:11/M
7 Raymond Bonomo Brighton MI 51 46 1:48:29.1 8:17/M
8 Paul Kosaian Brighton MI 53 47 1:48:46.2 8:18/M
9 Jim Zittel Waterford MI 53 122 2:25:17.2 11:05/M

Male 55 to 59

Place Name City Age Overall Total Time Pace
1 John Glossiaux 56 35 1:44:27.5 7:58/M
2 Hamdo Mesinovic Farmington MI 59 87 2:02:52.8 9:23/M
3 Domingo Valadez Temperance MI 57 113 2:18:01.3 10:32/M

Male 60 to 64

Place Name City Age Overall Total Time Pace
1 Graham Astley Brighton MI 63 27 1:41:55.2 7:47/M




5K Run/Walk
Female Open Winners

Place Name City Age Overall Total Time Pace
1 Kirsten McGahan Brighton MI 17 14 19:26.4 6:15/M

Female Masters' Winners

Place Name City Age Overall Total Time Pace
1 Jeralyn McGahan Brighton MI 50 34 22:22.8 7:12/M

Female 14 and under

Place Name City Age Overall Total Time Pace
1 Monroe Fruchey Huntertown IN 14 15 19:52.1 6:23/M
2 Miranda Meyers South Lyon MI 13 17 20:25.1 6:34/M
3 Eden Walkowski Murfreesboro TN 14 27 21:31.2 6:55/M
4 Elizabeth Brent Brighton MI 14 28 21:35.5 6:56/M
5 Catherine Ihrke Homer Glen IL 13 43 23:35.5 7:35/M
6 Emily Tully Oswego IL 13 80 26:09.5 8:25/M
7 Monique Finet Brighton MI 10 101 27:49.6 8:57/M
8 Ellie Stark Lakeland MI 12 156 31:00.5 9:58/M
9 Abigail Wright Howell MI 11 176 32:56.4 10:35/M
10 Tori Scheuer Brighton MI 13 178 33:01.9 10:37/M
11 Abby Johnson Brighton MI 13 179 33:02.5 10:37/M
12 Alexis Harner 12 185 33:37.6 10:49/M
13 Makayla Glenn 13 187 33:56.6 10:55/M
14 Olivia Davis Brighton MI 12 197 34:24.0 11:04/M
15 Ella Tillman Howell MI 6 209 35:15.3 11:20/M
16 Lucy Mejia Brighton MI 10 219 36:00.8 11:35/M
17 Katie Root Howell MI 7 247 40:51.1 13:08/M
18 Isabella Soraruf Brighton MI 10 249 41:09.0 13:14/M
19 Carlie Woodard Howell MI 5 277 58:21.8 18:46/M
20 Kaelyn Horcha Brighton MI 6 279 59:43.0 19:12/M

Female 15 to 19

Place Name City Age Overall Total Time Pace
1 Emma Lane Fenton MI 17 23 21:07.1 6:47/M
2 Elizabeth Setsuda South Lyon MI 16 38 22:45.7 7:19/M
3 Danielle Demarco Brighton MI 18 56 24:34.8 7:54/M
4 Ashley Brinkel South Lyon MI 17 103 28:09.1 9:03/M
5 Elaina McClellan Howell MI 19 129 29:43.8 9:33/M
6 Elizabeth Ihrke Homer Glen IL 16 148 30:23.7 9:46/M
7 Moriah Sweet Brighton MI 15 164 31:26.7 10:06/M
8 Emily Coan Howell MI 18 193 34:20.8 11:02/M
9 Abby Gamache Howell MI 18 194 34:21.1 11:03/M
10 Alexandra Perry Brighton MI 18 232 37:23.9 12:01/M

Female 20 to 24

Place Name City Age Overall Total Time Pace
1 Marissa McGahan Brighton MI 20 16 19:55.5 6:24/M
2 Kiersten Waineo Plymouth MI 23 19 20:28.6 6:35/M
3 Danielle Kanclerz Detroit MI 23 21 20:44.7 6:40/M
4 Nikki Burgess 23 61 25:05.3 8:04/M
5 Kristina Scott Brighton MI 20 67 25:11.1 8:06/M
6 Erica Grochowski Howell MI 24 92 27:08.7 8:43/M
7 Kathryn Waineo Howell MI 21 112 29:03.3 9:20/M
8 Jess Vyletle Howell MI 24 125 29:38.7 9:32/M
9 Kailey Miller Nashville TN 21 127 29:39.6 9:32/M
10 Taylor Wilson Gaines MI 22 167 31:53.4 10:15/M
11 Audrey Kobe 22 170 32:07.5 10:20/M
12 Madison Tluczek Brighton MI 20 192 34:20.6 11:02/M
13 Kimberly Duncan Fenton MI 22 195 34:21.9 11:03/M
14 Sylvan Edwards Walled Lake MI 23 203 34:49.6 11:12/M

Female 25 to 29

Place Name City Age Overall Total Time Pace
1 Julianne Preston Brighton MI 26 48 23:47.7 7:39/M
2 Katrina Foss Brighton MI 27 87 26:36.2 8:33/M
3 Brittany Evans Pinckney MI 26 97 27:37.5 8:53/M
4 Catherine Daniel Brighton MI 28 109 28:46.1 9:15/M
5 Shannon Serrico Brighton MI 28 119 29:25.9 9:28/M
6 Rachel Hoehn Brighton MI 25 138 30:00.1 9:39/M
7 Ashley Ranville Howell MI 29 152 30:33.1 9:49/M
8 Emily Thomas Brighton MI 26 235 39:27.6 12:41/M
9 Rebecca Waineo Jackson MI 28 240 39:41.5 12:46/M

Female 30 to 34

Place Name City Age Overall Total Time Pace
1 Rebecca Mayer Hartland MI 34 71 25:26.2 8:11/M
2 Elizabeth Barz 33 84 26:23.2 8:29/M
3 Julie Whitman Brighton MI 31 100 27:42.2 8:54/M
4 Andrea Gillespie Brighton MI 31 117 29:22.1 9:27/M
5 Katie Brown Howell MI 30 121 29:28.6 9:28/M
6 Candice Vollweiler Brighton MI 34 124 29:31.6 9:29/M
7 Katie Fuchs Ferndale MI 31 146 30:17.7 9:44/M
8 Amie Pierce Westland MI 31 175 32:55.1 10:35/M
9 Faith Fox Swartz Creek MI 32 190 34:11.0 10:59/M
10 Megan Davis Brighton MI 31 196 34:23.5 11:03/M
11 Jennifer Ormond Novi MI 33 206 34:52.4 11:13/M
12 Kelly Mitton Brighton MI 30 222 36:11.9 11:38/M
13 Lauren Budzar Independence OH 34 228 37:02.4 11:54/M
14 Stephanie Hyden Fowlerville MI 32 234 38:26.4 12:21/M
15 Clarissa Kotila Pinckney MI 30 239 39:40.7 12:45/M

Female 35 to 39

Place Name City Age Overall Total Time Pace
1 Christina Fidkowski Canton MI 37 39 22:47.4 7:20/M
2 Katie Hartman Brighton MI 37 79 26:04.0 8:23/M
3 Brenna Wheeler Brighton MI 35 89 26:43.0 8:35/M
4 Melissa Cloe 36 95 27:28.0 8:50/M
5 Beth Tardiff White Lake MI 38 102 28:05.4 9:02/M
6 Jackie Sledz Howell MI 35 123 29:31.0 9:29/M
7 Kristina Cockerill Fowlerville MI 37 135 29:52.5 9:36/M
8 Michelle Hack Pinckney MI 35 145 30:17.4 9:44/M
9 Anne Moskal Howell MI 37 186 33:47.3 10:52/M
10 Jodie Haberkorn Pinckney MI 39 210 35:22.6 11:22/M
11 Tina Smith 35 257 45:25.1 14:36/M
12 Jamie Tomasello Ann Arbor MI 36 261 46:48.1 15:03/M
13 Karina Horcha Brighton MI 38 280 59:43.9 19:12/M

Female 40 to 44

Place Name City Age Overall Total Time Pace
1 Kari Meyers South Lyon MI 42 49 23:52.5 7:40/M
2 Sara Johnson Brighton MI 42 50 23:53.1 7:41/M
3 Claudia Lopez Pinckney MI 40 57 24:39.1 7:56/M
4 Renee Schreiner O Fallon MO 42 78 26:02.7 8:22/M
5 Tanya Carter Fenton MI 40 93 27:15.4 8:46/M
6 Naoko Shintaku Palatine IL 44 96 27:31.8 8:51/M
7 Danielle Annonette Pinckney MI 41 107 28:32.3 9:10/M
8 Nora Dabrowski Brighton MI 44 115 29:17.2 9:25/M
9 Michele Yanga Howell MI 41 118 29:23.2 9:27/M
10 Teri Sweet Howell MI 41 132 29:50.5 9:36/M
11 Kim Tully Oswego IL 43 159 31:04.9 9:59/M
12 Christine Barman Brighton MI 44 161 31:16.5 10:03/M
13 Jody Wolak 40 172 32:15.9 10:22/M
14 Michelle Rodesiler 43 177 32:57.3 10:36/M
15 Cori Schlimmer Walled Lake MI 41 189 34:04.6 10:57/M
16 Julie Mejia Brighton MI 41 216 35:50.7 11:31/M
17 Julia Keider Howell MI 41 243 39:51.9 12:49/M
18 Darcy Rippetoe Howell MI 44 252 42:12.2 13:34/M
19 Martha Soraruf Brighton MI 42 258 45:25.3 14:36/M
20 Greta Hundertmark Ypsilanti MI 41 259 46:07.7 14:50/M
21 Amy Petrucci Howell MI 40 269 51:06.2 16:26/M
22 Heike Woodard Howell MI 41 278 58:23.3 18:46/M

Female 45 to 49

Place Name City Age Overall Total Time Pace
1 Kristin Kachnowski Wixom MI 45 36 22:29.3 7:14/M
2 Winnie Fukuda Granite Bay CA 45 82 26:13.5 8:26/M
3 Colleen Kirasic Brighton MI 48 137 29:58.4 9:38/M
4 Susan Dooley Howell MI 47 149 30:27.4 9:47/M
5 Kathy Edwards Walled Lake MI 47 150 30:30.8 9:48/M
6 Kathy Stark Lakeland MI 45 157 31:00.7 9:58/M
7 Cynthia Simpson Milford MI 48 191 34:15.4 11:01/M
8 Sheryl Kemmerling Brighton MI 48 198 34:28.4 11:05/M
9 Susan Vereecke Brighton MI 45 199 34:28.6 11:05/M
10 Liz Mace Brighton MI 46 229 37:04.2 11:55/M
11 Michelle Perry Brighton MI 47 231 37:21.9 12:01/M
12 Miriam Finet Brighton MI 49 246 40:29.3 13:01/M

Female 50 to 54

Place Name City Age Overall Total Time Pace
1 Kim Klanclerz Ypsilanti MI 52 90 26:50.6 8:38/M
2 Lisa Bachman Livonia MI 52 106 28:28.3 9:09/M
3 Beverly Reinbrecht Sylvania OH 53 120 29:26.4 9:28/M
4 Lisa Grebeck Holly MI 51 131 29:50.1 9:36/M
5 Joni Maier Gaines MI 53 168 31:57.5 10:16/M
6 Mary Ann Beck Brighton MI 54 169 32:00.0 10:17/M
7 Christine Brinkel South Lyon MI 51 211 35:22.8 11:22/M
8 Anita Elmgren Howell MI 54 223 36:16.2 11:40/M
9 Mary Thomas Fruita CO 53 236 39:32.4 12:43/M
10 Teresa Keppler Dexter MI 53 237 39:36.9 12:44/M
11 Kathryn Curley Brighton MI 54 238 39:36.9 12:44/M
12 Lynda Heinig Brighton MI 54 254 43:01.0 13:50/M
13 Karen Fritz-Sweet Brighton MI 50 255 43:01.1 13:50/M
14 Connie Lane Whitmore Lake MI 51 265 49:49.8 16:01/M
15 Martha James Plymouth MI 54 266 50:18.1 16:10/M
16 Anne Richardson Brighton MI 50 271 51:47.5 16:39/M
17 Cindy Shinabarker Brighton MI 52 272 51:47.5 16:39/M

Female 55 to 59

Place Name City Age Overall Total Time Pace
1 Lori Vecchioni Brighton MI 58 41 23:00.5 7:24/M
2 Wanda Gunderson Whitmore Lake MI 57 86 26:32.3 8:32/M
3 Colleen Downes Howell MI 57 140 30:01.3 9:39/M
4 Jennifer Triffo Brighton MI 55 166 31:32.8 10:08/M
5 Christelle Ross Brighton MI 59 215 35:49.2 11:31/M
6 Janet Dicarlo Pinckney MI 56 267 50:43.1 16:18/M

Female 60 to 64

Place Name City Age Overall Total Time Pace
1 Lois Portelli Hartland MI 61 114 29:14.0 9:24/M
2 Margaret Daigneau Howell MI 62 151 30:32.2 9:49/M
3 Patty Stevenson Brighton MI 63 181 33:21.5 10:43/M
4 Geri Rauch Howell MI 62 244 39:56.2 12:50/M
5 Mary Wolos Brighton MI 60 245 40:27.9 13:00/M
6 Sharon Gross Brighton MI 62 262 47:13.7 15:11/M
7 Peggy Hall-Davenport 64 264 49:19.4 15:51/M

Female 65 to 69

Place Name City Age Overall Total Time Pace
1 Jane Evans Brighton MI 65 165 31:26.8 10:06/M
2 Sandy Muldowney Brighton MI 65 180 33:20.7 10:43/M
3 Janet Simpson Whitmore Lake MI 68 251 41:33.3 13:22/M

Female 70 and over

Place Name City Age Overall Total Time Pace
1 Ellen Nitz Brighton MI 75 154 30:55.9 9:56/M
2 Sally Reynolds Howell MI 72 214 35:27.3 11:24/M
3 Helga Hartnagel Howell MI 77 274 57:58.1 18:38/M

Male Open Winners

Place Name City Age Overall Total Time Pace
1 Garrett McPeek Brighton MI 19 1 15:48.9 5:05/M

Male Masters' Winners

Place Name City Age Overall Total Time Pace
1 Michael Fruchey Huntertown IN 47 13 19:15.3 6:11/M

Male 14 and under

Place Name City Age Overall Total Time Pace
1 Nolan McGahan Brighton MI 14 8 18:48.1 6:03/M
2 Ryan Kachnowski Wixom MI 14 11 19:10.4 6:10/M
3 Quinn Cullen Brighton MI 12 12 19:11.3 6:10/M
4 Grant Smith Beaverton MI 10 24 21:09.4 6:48/M
5 Simon Hatcher Brighton MI 14 29 21:39.4 6:58/M
6 Noah Weslock Howell MI 14 32 22:03.0 7:05/M
7 Derek Fukuda Granite Bay CA 13 44 23:36.7 7:35/M
8 Hideto Hara Half Moon Bay CA 09 45 23:39.2 7:36/M
9 Benjamin Hawker Howell MI 13 51 23:57.0 7:42/M
10 Cooper Buckley Brighton MI 14 52 24:07.8 7:45/M
11 Unknown Partic. 1474 60 24:48.8 7:58/M
12 Spencer Kramer 10 65 25:08.3 8:05/M
13 Unknown Partic. 1352 66 25:10.7 8:06/M
14 Tommy Shintaku Palatine IL 09 68 25:18.9 8:08/M
15 Joshua Sweet Brighton MI 12 69 25:24.1 8:10/M
16 Unknown Partic. 1476 85 26:27.9 8:30/M
17 Unknown Partic. 1462 91 26:51.6 8:38/M
18 Noah Treichler Raleigh NC 14 98 27:40.8 8:54/M
19 Moskal Nathan Howell MI 10 104 28:11.0 9:04/M
20 Unknown Partic. 1470 110 28:51.7 9:17/M
21 Unknown Partic. 1465 113 29:10.3 9:23/M
22 Unknown Partic. 1464 116 29:20.8 9:26/M
23 Gavin Sweet Howell MI 10 128 29:43.1 9:33/M
24 Niklas Woodard Howell MI 13 141 30:07.8 9:41/M
25 Conor Tully Oswego IL 8 155 30:58.0 9:57/M
26 Unknown Partic. 1472 160 31:13.7 10:02/M
27 Unknown Partic. 1473 174 32:37.5 10:29/M
28 Christopher Root Howell MI 10 183 33:35.9 10:48/M
29 Unknown Partic. 1475 200 34:29.8 11:05/M
30 Dallin Ormond Novi MI 8 205 34:52.1 11:13/M
31 Raymond Hatcher Brighton MI 12 207 35:01.9 11:16/M
32 Unknown Partic. 1463 213 35:25.6 11:23/M
33 Henry Dabrowski Brighton MI 10 217 35:50.7 11:31/M
34 Walter Dabrowski Brighton MI 10 218 35:54.6 11:33/M
35 Unknown Partic. 1460 224 36:16.2 11:40/M
36 Unknown Partic. 1461 225 36:16.4 11:40/M
37 Ethan Keider Howell MI 10 241 39:48.4 12:48/M
38 Nick Moskal Howell MI 11 242 39:50.8 12:48/M
39 Hunter Soraruf Brighton MI 13 256 43:11.1 13:53/M
40 Emmett Romerstein Ann Arbor MI 5 260 46:47.4 15:03/M
41 Carter Rippetoe Howell MI 12 263 49:17.0 15:51/M
42 James Petrucci Howell MI 9 268 51:06.2 16:26/M
43 Jonathan Horcha Brighton MI 10 281 59:51.7 19:15/M

Male 15 to 19

Place Name City Age Overall Total Time Pace
1 Mark Borek Hamburg MI 17 3 17:03.6 5:29/M
2 Ty Buckley Brighton MI 16 4 17:03.7 5:29/M
3 Nicholas Barr Brighton MI 15 25 21:21.3 6:52/M
4 Charlie Ryan Brighton MI 15 77 26:02.5 8:22/M
5 Alex Royal 16 83 26:15.7 8:26/M
6 Dylan Mitton Brighton MI 17 162 31:23.0 10:05/M
7 Gregory Waineo Howell MI 17 173 32:32.6 10:28/M
8 Nicholas Ryan Brighton MI 16 201 34:42.3 11:09/M
9 Austin Woodard Howell MI 15 276 58:21.8 18:46/M

Male 20 to 24

Place Name City Age Overall Total Time Pace
1 Ty Dickinson Fort Gratiot MI 20 5 17:26.5 5:36/M
2 Ian McCracken Livonia MI 22 10 18:57.5 6:06/M
3 Mitchell Curley Nashville TN 22 63 25:06.2 8:04/M
4 Nicholas Dicarlo Pinckney MI 21 72 25:28.6 8:11/M
5 Michael Hoehn Brighton MI 24 139 30:00.2 9:39/M

Male 25 to 29

Place Name City Age Overall Total Time Pace
1 Mike Andersen Brighton MI 29 2 16:01.3 5:09/M
2 Piotr Fidkowski Canton MI 29 9 18:49.2 6:03/M
3 James Hatem Nashville TN 26 18 20:28.5 6:35/M
4 Joshua Maddock Wixom MI 28 37 22:33.4 7:15/M
5 Tom Maier Gaines MI 26 53 24:15.5 7:48/M
6 Greg Ruhnow Norwalk CT 29 158 31:04.9 9:59/M
7 Aaron Foss Brighton MI 29 220 36:03.7 11:35/M

Male 30 to 34

Place Name City Age Overall Total Time Pace
1 Chris Elsey South Lyon MI 30 6 17:55.5 5:46/M
2 Mike Mikulec Brighton MI 32 7 18:14.7 5:52/M
3 Donald Setter Beufort NC 34 26 21:24.2 6:53/M
4 Jason Broniak Taylor MI 34 136 29:56.8 9:37/M

Male 35 to 39

Place Name City Age Overall Total Time Pace
1 Ryan Ormond Novi MI 36 20 20:33.0 6:36/M
2 Caleb Coddington Brighton MI 35 35 22:24.7 7:12/M
3 Alex Ibrahim Brighton MI 35 42 23:21.8 7:30/M
4 James Calvin IV Pinckney MI 35 58 24:39.9 7:56/M
5 Sean Kramer Brighton MI 38 64 25:07.7 8:05/M
6 David Fobley MI 36 75 25:46.0 8:17/M
7 Andrew Roman South Lyon MI 36 126 29:39.3 9:32/M
8 Brian Tillman Howell MI 39 208 35:15.1 11:20/M
9 Jim Moskal Howell MI 38 248 40:51.2 13:08/M
10 Kyle Bailey Greenville MI 38 270 51:06.7 16:26/M

Male 40 to 44

Place Name City Age Overall Total Time Pace
1 Andy Kamin 41 22 20:55.0 6:44/M
2 Tom McHugh Brighton MI 44 33 22:16.2 7:10/M
3 James Cook Brighton MI 42 54 24:16.5 7:48/M
4 Ethan Hawker Howell MI 44 88 26:42.5 8:35/M
5 Ryan Treichler Raleigh NC 41 99 27:41.2 8:54/M
6 Patrick Sweet Howell MI 40 133 29:51.2 9:36/M
7 Clint Ward Howell MI 43 134 29:51.3 9:36/M
8 Andrew Woodard Howell MI 41 142 30:07.9 9:41/M
9 William Mitton Brighton MI 43 163 31:24.0 10:06/M
10 John Puh Houston TX 43 233 37:53.5 12:11/M
11 Bart Horcha Brighton MI 42 282 59:52.1 19:15/M

Male 45 to 49

Place Name City Age Overall Total Time Pace
1 Scott Hara Half Moon Bay CA 45 46 23:43.3 7:38/M
2 Mark Tyler Pinckney MI 49 76 25:57.0 8:21/M
3 Ronald Duncan Fenton MI 48 143 30:09.5 9:42/M
4 Darin Phillips 48 184 33:36.8 10:48/M
5 Michael Ryan Brighton MI 45 202 34:44.1 11:10/M
6 Carmi Edwards Walled Lake MI 48 204 34:50.0 11:12/M

Male 50 to 54

Place Name City Age Overall Total Time Pace
1 David Hatcher Brighton MI 50 31 21:53.2 7:02/M
2 Gordon Smith Brighton MI 52 40 22:59.6 7:23/M
3 Dave Erwin 54 73 25:42.1 8:16/M
4 Brian Richardson Brighton MI 51 94 27:27.6 8:50/M
5 Peter Grebeck Holly MI 51 105 28:14.1 9:05/M
6 Bradley McClellan Howell MI 52 130 29:44.0 9:34/M
7 Chai Montgomery Ann Arbor MI 51 153 30:50.7 9:55/M
8 Dan Thomas Fruita CO 54 182 33:32.3 10:47/M
9 Greg Soraruf Brighton MI 51 250 41:18.7 13:17/M

Male 55 to 59

Place Name City Age Overall Total Time Pace
1 Greg MacDonald Anchorage AK 55 30 21:52.2 7:02/M
2 George Reynolds Pinckney MI 59 47 23:47.6 7:39/M
3 Jim Gardner Brighton MI 56 55 24:27.0 7:52/M
4 Stan Schafer Brighton MI 59 59 24:46.3 7:58/M
5 Jim Burgess Milford 57 62 25:05.5 8:04/M
6 Michael Beck Brighton MI 56 108 28:40.4 9:13/M
7 Greg Ronowski Farmington MI 55 111 28:58.2 9:19/M
8 Peter Bowen Howell MI 59 144 30:13.1 9:43/M
9 Bob Fuchs Brighton MI 56 147 30:18.2 9:45/M
10 Allen Elmgren Howell MI 55 171 32:14.8 10:22/M
11 Robert Triffo Brighton MI 55 253 42:58.7 13:49/M

Male 60 to 64

Place Name City Age Overall Total Time Pace
1 Dave Maier Gaines MI 61 70 25:24.6 8:10/M
2 Edward Recke Brighton MI 62 74 25:45.9 8:17/M
3 Bobby Payton Myrtle Beach SC 64 221 36:07.1 11:37/M
4 Michael Daigneau Howell MI 63 226 36:16.8 11:40/M
5 Charles Soeder South Lyon MI 62 227 37:02.1 11:54/M
6 Bobby Payton 64 283 1:12:20.9 23:15/M

Male 65 to 69

Place Name City Age Overall Total Time Pace
1 Paul Doby Howell MI 65 81 26:13.1 8:26/M
2 Keith Wright Howell MI 66 122 29:29.7 9:29/M
3 Robert Loverde Brighton MI 66 212 35:24.3 11:23/M

Male 70 and over

Place Name City Age Overall Total Time Pace
1 Steve Cerovsky Brighton MI 72 188 34:03.4 10:57/M
2 Dan Gamble Ann Arbor MI 73 230 37:06.4 11:56/M
3 Roland Hartnagel Howell MI 75 273 57:56.7 18:38/M
4 Jerome Gross Brighton MI 78 275 58:06.9 18:41/M